sensor_id;sensor_type;location;lat;lon;timestamp;temperature;humidity
2997;DHT22;1508;48.744;9.110;2023-05-10T00:02:22;13.10;99.90
2997;DHT22;1508;48.744;9.110;2023-05-10T00:05:08;13.00;99.90
2997;DHT22;1508;48.744;9.110;2023-05-10T00:07:53;12.90;99.90
2997;DHT22;1508;48.744;9.110;2023-05-10T00:10:39;12.80;99.90
2997;DHT22;1508;48.744;9.110;2023-05-10T00:13:25;12.80;99.90
2997;DHT22;1508;48.744;9.110;2023-05-10T00:16:11;12.80;99.90
2997;DHT22;1508;48.744;9.110;2023-05-10T00:18:56;12.70;99.90
2997;DHT22;1508;48.744;9.110;2023-05-10T00:21:42;12.60;99.90
2997;DHT22;1508;48.744;9.110;2023-05-10T00:24:28;12.60;99.90
2997;DHT22;1508;48.744;9.110;2023-05-10T00:27:14;12.50;99.90
2997;DHT22;1508;48.744;9.110;2023-05-10T00:29:59;12.40;99.90
2997;DHT22;1508;48.744;9.110;2023-05-10T00:32:45;12.30;99.90
2997;DHT22;1508;48.744;9.110;2023-05-10T00:35:31;12.30;99.90
2997;DHT22;1508;48.744;9.110;2023-05-10T00:38:17;12.30;99.90
2997;DHT22;1508;48.744;9.110;2023-05-10T00:41:02;12.30;99.90
2997;DHT22;1508;48.744;9.110;2023-05-10T00:43:48;12.20;99.90
2997;DHT22;1508;48.744;9.110;2023-05-10T00:46:34;12.10;99.90
2997;DHT22;1508;48.744;9.110;2023-05-10T00:49:20;12.10;99.90
2997;DHT22;1508;48.744;9.110;2023-05-10T00:52:06;12.00;99.90
2997;DHT22;1508;48.744;9.110;2023-05-10T00:54:51;12.00;99.90
2997;DHT22;1508;48.744;9.110;2023-05-10T00:57:37;11.90;99.90
2997;DHT22;1508;48.744;9.110;2023-05-10T01:00:23;11.90;99.90
2997;DHT22;1508;48.744;9.110;2023-05-10T01:03:10;11.90;99.90
2997;DHT22;1508;48.744;9.110;2023-05-10T01:05:56;11.80;99.90
2997;DHT22;1508;48.744;9.110;2023-05-10T01:14:51;11.70;99.90
2997;DHT22;1508;48.744;9.110;2023-05-10T01:17:37;11.70;99.90
2997;DHT22;1508;48.744;9.110;2023-05-10T01:20:24;11.70;99.90
2997;DHT22;1508;48.744;9.110;2023-05-10T01:26:14;11.70;99.90
2997;DHT22;1508;48.744;9.110;2023-05-10T01:29:39;11.70;99.90
2997;DHT22;1508;48.744;9.110;2023-05-10T01:35:14;11.70;99.90
2997;DHT22;1508;48.744;9.110;2023-05-10T01:43:47;11.60;99.90
2997;DHT22;1508;48.744;9.110;2023-05-10T01:46:37;11.50;99.90
2997;DHT22;1508;48.744;9.110;2023-05-10T01:49:25;11.50;99.90
2997;DHT22;1508;48.744;9.110;2023-05-10T01:52:15;11.50;99.90
2997;DHT22;1508;48.744;9.110;2023-05-10T01:55:02;11.50;99.90
2997;DHT22;1508;48.744;9.110;2023-05-10T01:57:51;11.50;99.90
2997;DHT22;1508;48.744;9.110;2023-05-10T02:00:39;11.50;99.90
2997;DHT22;1508;48.744;9.110;2023-05-10T02:03:25;11.50;99.90
2997;DHT22;1508;48.744;9.110;2023-05-10T02:06:12;11.50;99.90
2997;DHT22;1508;48.744;9.110;2023-05-10T02:09:00;11.50;99.90
2997;DHT22;1508;48.744;9.110;2023-05-10T02:11:47;11.50;99.90
2997;DHT22;1508;48.744;9.110;2023-05-10T02:14:34;11.50;99.90
2997;DHT22;1508;48.744;9.110;2023-05-10T02:17:20;11.50;99.90
2997;DHT22;1508;48.744;9.110;2023-05-10T02:20:07;11.50;99.90
2997;DHT22;1508;48.744;9.110;2023-05-10T02:22:54;11.50;99.90
2997;DHT22;1508;48.744;9.110;2023-05-10T02:25:40;11.40;99.90
2997;DHT22;1508;48.744;9.110;2023-05-10T02:28:26;11.50;99.90
2997;DHT22;1508;48.744;9.110;2023-05-10T02:31:13;11.50;99.90
2997;DHT22;1508;48.744;9.110;2023-05-10T02:33:59;11.50;99.90
2997;DHT22;1508;48.744;9.110;2023-05-10T02:36:45;11.50;99.90
2997;DHT22;1508;48.744;9.110;2023-05-10T02:39:31;11.40;99.90
2997;DHT22;1508;48.744;9.110;2023-05-10T02:42:18;11.50;99.90
2997;DHT22;1508;48.744;9.110;2023-05-10T02:45:10;11.50;99.90
2997;DHT22;1508;48.744;9.110;2023-05-10T02:47:57;11.50;99.90
2997;DHT22;1508;48.744;9.110;2023-05-10T02:50:44;11.50;99.90
2997;DHT22;1508;48.744;9.110;2023-05-10T02:53:30;11.50;99.90
2997;DHT22;1508;48.744;9.110;2023-05-10T02:56:23;11.50;99.90
2997;DHT22;1508;48.744;9.110;2023-05-10T02:59:10;11.50;99.90
2997;DHT22;1508;48.744;9.110;2023-05-10T03:01:56;11.60;99.90
2997;DHT22;1508;48.744;9.110;2023-05-10T03:04:41;11.60;99.90
2997;DHT22;1508;48.744;9.110;2023-05-10T03:07:27;11.60;99.90
2997;DHT22;1508;48.744;9.110;2023-05-10T03:10:13;11.50;99.90
2997;DHT22;1508;48.744;9.110;2023-05-10T03:16:14;11.50;99.90
2997;DHT22;1508;48.744;9.110;2023-05-10T03:21:47;11.50;99.90
2997;DHT22;1508;48.744;9.110;2023-05-10T03:24:34;11.50;99.90
2997;DHT22;1508;48.744;9.110;2023-05-10T03:27:21;11.50;99.90
2997;DHT22;1508;48.744;9.110;2023-05-10T03:30:08;11.70;99.90
2997;DHT22;1508;48.744;9.110;2023-05-10T03:32:54;11.70;99.90
2997;DHT22;1508;48.744;9.110;2023-05-10T03:35:40;11.60;99.90
2997;DHT22;1508;48.744;9.110;2023-05-10T03:38:26;11.60;99.90
2997;DHT22;1508;48.744;9.110;2023-05-10T03:41:11;11.70;99.90
2997;DHT22;1508;48.744;9.110;2023-05-10T03:43:57;11.70;99.90
2997;DHT22;1508;48.744;9.110;2023-05-10T03:46:43;11.70;99.90
2997;DHT22;1508;48.744;9.110;2023-05-10T03:49:28;11.80;99.90
2997;DHT22;1508;48.744;9.110;2023-05-10T03:52:14;11.90;99.90
2997;DHT22;1508;48.744;9.110;2023-05-10T03:55:00;12.00;99.90
2997;DHT22;1508;48.744;9.110;2023-05-10T03:57:46;12.00;99.90
2997;DHT22;1508;48.744;9.110;2023-05-10T04:00:31;12.10;99.90
2997;DHT22;1508;48.744;9.110;2023-05-10T04:03:17;12.00;99.90
2997;DHT22;1508;48.744;9.110;2023-05-10T04:06:03;12.10;99.90
2997;DHT22;1508;48.744;9.110;2023-05-10T04:08:49;12.10;99.90
2997;DHT22;1508;48.744;9.110;2023-05-10T04:11:35;12.10;99.90
2997;DHT22;1508;48.744;9.110;2023-05-10T04:14:20;12.10;99.90
2997;DHT22;1508;48.744;9.110;2023-05-10T04:17:06;12.10;99.90
2997;DHT22;1508;48.744;9.110;2023-05-10T04:19:52;12.10;99.90
2997;DHT22;1508;48.744;9.110;2023-05-10T04:22:38;12.10;99.90
2997;DHT22;1508;48.744;9.110;2023-05-10T04:25:23;12.00;99.90
2997;DHT22;1508;48.744;9.110;2023-05-10T04:28:09;12.10;99.90
2997;DHT22;1508;48.744;9.110;2023-05-10T04:31:09;11.90;99.90
2997;DHT22;1508;48.744;9.110;2023-05-10T04:33:55;11.80;99.90
2997;DHT22;1508;48.744;9.110;2023-05-10T04:36:40;11.80;99.90
2997;DHT22;1508;48.744;9.110;2023-05-10T04:39:26;11.90;99.90
2997;DHT22;1508;48.744;9.110;2023-05-10T04:42:12;12.10;99.90
2997;DHT22;1508;48.744;9.110;2023-05-10T04:44:57;12.20;99.90
2997;DHT22;1508;48.744;9.110;2023-05-10T04:47:43;12.20;99.90
2997;DHT22;1508;48.744;9.110;2023-05-10T04:50:29;12.20;99.90
2997;DHT22;1508;48.744;9.110;2023-05-10T04:53:15;12.30;99.90
2997;DHT22;1508;48.744;9.110;2023-05-10T04:56:00;12.30;99.90
2997;DHT22;1508;48.744;9.110;2023-05-10T04:58:46;12.40;99.90
2997;DHT22;1508;48.744;9.110;2023-05-10T05:01:32;12.50;99.90
2997;DHT22;1508;48.744;9.110;2023-05-10T05:04:18;12.50;99.90
2997;DHT22;1508;48.744;9.110;2023-05-10T05:07:04;12.70;99.90
2997;DHT22;1508;48.744;9.110;2023-05-10T05:09:49;12.70;99.90
2997;DHT22;1508;48.744;9.110;2023-05-10T05:12:35;12.80;99.90
2997;DHT22;1508;48.744;9.110;2023-05-10T05:15:21;12.90;99.90
2997;DHT22;1508;48.744;9.110;2023-05-10T05:18:07;13.00;99.90
2997;DHT22;1508;48.744;9.110;2023-05-10T05:20:52;13.10;99.90
2997;DHT22;1508;48.744;9.110;2023-05-10T05:23:38;13.10;99.90
2997;DHT22;1508;48.744;9.110;2023-05-10T05:26:24;13.10;99.90
2997;DHT22;1508;48.744;9.110;2023-05-10T05:29:09;13.20;99.90
2997;DHT22;1508;48.744;9.110;2023-05-10T05:31:55;13.30;99.90
2997;DHT22;1508;48.744;9.110;2023-05-10T05:34:41;13.40;99.90
2997;DHT22;1508;48.744;9.110;2023-05-10T05:37:27;13.40;99.90
2997;DHT22;1508;48.744;9.110;2023-05-10T05:40:12;13.30;99.90
2997;DHT22;1508;48.744;9.110;2023-05-10T05:42:58;13.10;99.90
2997;DHT22;1508;48.744;9.110;2023-05-10T05:45:44;13.00;99.90
2997;DHT22;1508;48.744;9.110;2023-05-10T05:48:30;13.20;99.90
2997;DHT22;1508;48.744;9.110;2023-05-10T05:51:16;13.40;99.90
2997;DHT22;1508;48.744;9.110;2023-05-10T05:54:02;13.60;99.90
2997;DHT22;1508;48.744;9.110;2023-05-10T05:56:47;13.50;99.90
2997;DHT22;1508;48.744;9.110;2023-05-10T05:59:33;13.30;99.90
2997;DHT22;1508;48.744;9.110;2023-05-10T06:02:19;13.40;99.90
2997;DHT22;1508;48.744;9.110;2023-05-10T06:05:05;13.20;99.90
2997;DHT22;1508;48.744;9.110;2023-05-10T06:07:51;13.50;99.90
2997;DHT22;1508;48.744;9.110;2023-05-10T06:10:36;13.60;99.90
2997;DHT22;1508;48.744;9.110;2023-05-10T06:13:22;13.90;99.90
2997;DHT22;1508;48.744;9.110;2023-05-10T06:16:08;14.00;99.90
2997;DHT22;1508;48.744;9.110;2023-05-10T06:18:53;13.80;99.90
2997;DHT22;1508;48.744;9.110;2023-05-10T06:21:39;13.60;99.90
2997;DHT22;1508;48.744;9.110;2023-05-10T06:24:25;13.50;99.90
2997;DHT22;1508;48.744;9.110;2023-05-10T06:27:11;13.50;99.90
2997;DHT22;1508;48.744;9.110;2023-05-10T06:29:56;13.70;99.90
2997;DHT22;1508;48.744;9.110;2023-05-10T06:32:42;13.40;99.90
2997;DHT22;1508;48.744;9.110;2023-05-10T06:35:28;13.10;99.90
2997;DHT22;1508;48.744;9.110;2023-05-10T06:38:14;13.00;99.90
2997;DHT22;1508;48.744;9.110;2023-05-10T06:40:59;12.90;99.90
2997;DHT22;1508;48.744;9.110;2023-05-10T06:43:45;12.70;99.90
2997;DHT22;1508;48.744;9.110;2023-05-10T06:46:31;12.60;99.90
2997;DHT22;1508;48.744;9.110;2023-05-10T06:49:17;12.60;99.90
2997;DHT22;1508;48.744;9.110;2023-05-10T06:52:02;12.50;99.90
2997;DHT22;1508;48.744;9.110;2023-05-10T06:54:48;12.60;99.90
2997;DHT22;1508;48.744;9.110;2023-05-10T06:57:34;12.70;99.90
2997;DHT22;1508;48.744;9.110;2023-05-10T07:00:20;12.90;99.90
2997;DHT22;1508;48.744;9.110;2023-05-10T07:03:06;13.00;99.90
2997;DHT22;1508;48.744;9.110;2023-05-10T07:05:51;13.20;99.90
2997;DHT22;1508;48.744;9.110;2023-05-10T07:08:37;13.50;99.90
2997;DHT22;1508;48.744;9.110;2023-05-10T07:11:23;14.00;99.90
2997;DHT22;1508;48.744;9.110;2023-05-10T07:14:09;14.30;99.90
2997;DHT22;1508;48.744;9.110;2023-05-10T07:16:54;14.80;99.90
2997;DHT22;1508;48.744;9.110;2023-05-10T07:19:40;15.00;99.90
2997;DHT22;1508;48.744;9.110;2023-05-10T07:22:26;15.20;99.90
2997;DHT22;1508;48.744;9.110;2023-05-10T07:25:12;15.50;99.90
2997;DHT22;1508;48.744;9.110;2023-05-10T07:27:57;15.50;99.90
2997;DHT22;1508;48.744;9.110;2023-05-10T07:30:43;15.50;99.90
2997;DHT22;1508;48.744;9.110;2023-05-10T07:33:29;15.80;99.90
2997;DHT22;1508;48.744;9.110;2023-05-10T07:36:14;15.60;99.90
2997;DHT22;1508;48.744;9.110;2023-05-10T07:39:00;15.40;99.90
2997;DHT22;1508;48.744;9.110;2023-05-10T07:41:46;15.00;99.90
2997;DHT22;1508;48.744;9.110;2023-05-10T07:44:32;15.20;99.90
2997;DHT22;1508;48.744;9.110;2023-05-10T07:47:17;15.50;99.90
2997;DHT22;1508;48.744;9.110;2023-05-10T07:50:03;15.70;99.90
2997;DHT22;1508;48.744;9.110;2023-05-10T07:52:49;15.60;99.90
2997;DHT22;1508;48.744;9.110;2023-05-10T07:55:35;15.50;99.90
2997;DHT22;1508;48.744;9.110;2023-05-10T07:58:21;15.20;99.90
2997;DHT22;1508;48.744;9.110;2023-05-10T08:01:06;14.70;99.90
2997;DHT22;1508;48.744;9.110;2023-05-10T08:03:52;15.00;99.90
2997;DHT22;1508;48.744;9.110;2023-05-10T08:06:38;14.90;99.90
2997;DHT22;1508;48.744;9.110;2023-05-10T08:09:24;14.30;99.90
2997;DHT22;1508;48.744;9.110;2023-05-10T08:12:10;14.50;99.90
2997;DHT22;1508;48.744;9.110;2023-05-10T08:14:56;14.20;99.90
2997;DHT22;1508;48.744;9.110;2023-05-10T08:17:41;14.10;99.90
2997;DHT22;1508;48.744;9.110;2023-05-10T08:20:27;14.10;99.90
2997;DHT22;1508;48.744;9.110;2023-05-10T08:23:13;14.10;99.90
2997;DHT22;1508;48.744;9.110;2023-05-10T08:25:59;14.00;99.90
2997;DHT22;1508;48.744;9.110;2023-05-10T08:28:45;13.80;99.90
2997;DHT22;1508;48.744;9.110;2023-05-10T08:31:31;14.00;99.90
2997;DHT22;1508;48.744;9.110;2023-05-10T08:34:16;14.30;99.90
2997;DHT22;1508;48.744;9.110;2023-05-10T08:37:03;14.60;99.90
2997;DHT22;1508;48.744;9.110;2023-05-10T08:39:48;14.60;99.90
2997;DHT22;1508;48.744;9.110;2023-05-10T08:42:34;14.60;99.90
2997;DHT22;1508;48.744;9.110;2023-05-10T08:45:22;14.90;99.90
2997;DHT22;1508;48.744;9.110;2023-05-10T08:48:09;14.80;99.90
2997;DHT22;1508;48.744;9.110;2023-05-10T08:50:55;14.50;99.90
2997;DHT22;1508;48.744;9.110;2023-05-10T08:53:42;15.00;99.90
2997;DHT22;1508;48.744;9.110;2023-05-10T08:56:29;15.20;99.90
2997;DHT22;1508;48.744;9.110;2023-05-10T08:59:14;14.80;99.90
2997;DHT22;1508;48.744;9.110;2023-05-10T09:02:00;15.00;99.90
2997;DHT22;1508;48.744;9.110;2023-05-10T09:04:46;15.10;99.90
2997;DHT22;1508;48.744;9.110;2023-05-10T09:07:32;14.60;99.90
2997;DHT22;1508;48.744;9.110;2023-05-10T09:10:18;14.50;99.90
2997;DHT22;1508;48.744;9.110;2023-05-10T09:13:04;14.30;99.90
2997;DHT22;1508;48.744;9.110;2023-05-10T09:15:50;14.40;99.90
2997;DHT22;1508;48.744;9.110;2023-05-10T09:18:36;14.30;99.90
2997;DHT22;1508;48.744;9.110;2023-05-10T09:21:22;14.20;99.90
2997;DHT22;1508;48.744;9.110;2023-05-10T09:24:08;14.00;99.90
2997;DHT22;1508;48.744;9.110;2023-05-10T09:26:54;13.90;99.90
2997;DHT22;1508;48.744;9.110;2023-05-10T09:29:42;13.70;99.90
2997;DHT22;1508;48.744;9.110;2023-05-10T09:32:41;13.80;99.90
2997;DHT22;1508;48.744;9.110;2023-05-10T09:35:28;14.10;99.90
2997;DHT22;1508;48.744;9.110;2023-05-10T09:38:14;14.50;99.90
2997;DHT22;1508;48.744;9.110;2023-05-10T09:41:00;14.60;99.90
2997;DHT22;1508;48.744;9.110;2023-05-10T09:43:46;14.70;99.90
2997;DHT22;1508;48.744;9.110;2023-05-10T09:46:34;15.00;99.90
2997;DHT22;1508;48.744;9.110;2023-05-10T09:49:20;15.40;99.90
2997;DHT22;1508;48.744;9.110;2023-05-10T09:52:07;15.30;99.90
2997;DHT22;1508;48.744;9.110;2023-05-10T09:54:53;15.60;99.90
2997;DHT22;1508;48.744;9.110;2023-05-10T09:57:39;15.90;99.90
2997;DHT22;1508;48.744;9.110;2023-05-10T10:00:25;15.80;99.90
2997;DHT22;1508;48.744;9.110;2023-05-10T10:03:14;15.50;99.90
2997;DHT22;1508;48.744;9.110;2023-05-10T10:06:00;15.60;99.90
2997;DHT22;1508;48.744;9.110;2023-05-10T10:08:46;15.80;99.90
2997;DHT22;1508;48.744;9.110;2023-05-10T10:11:32;15.80;99.90
2997;DHT22;1508;48.744;9.110;2023-05-10T10:14:18;15.80;99.90
2997;DHT22;1508;48.744;9.110;2023-05-10T10:17:04;15.60;99.90
2997;DHT22;1508;48.744;9.110;2023-05-10T10:19:49;15.50;99.90
2997;DHT22;1508;48.744;9.110;2023-05-10T10:22:36;15.40;99.90
2997;DHT22;1508;48.744;9.110;2023-05-10T10:25:22;15.50;99.90
2997;DHT22;1508;48.744;9.110;2023-05-10T10:28:11;15.30;99.90
2997;DHT22;1508;48.744;9.110;2023-05-10T10:31:00;15.50;99.90
2997;DHT22;1508;48.744;9.110;2023-05-10T10:36:39;15.80;99.90
2997;DHT22;1508;48.744;9.110;2023-05-10T10:39:25;15.90;99.90
2997;DHT22;1508;48.744;9.110;2023-05-10T10:42:11;16.00;99.90
2997;DHT22;1508;48.744;9.110;2023-05-10T10:45:12;15.80;99.90
2997;DHT22;1508;48.744;9.110;2023-05-10T10:51:03;15.60;99.90
2997;DHT22;1508;48.744;9.110;2023-05-10T10:53:48;15.00;99.90
2997;DHT22;1508;48.744;9.110;2023-05-10T10:56:34;14.40;99.90
2997;DHT22;1508;48.744;9.110;2023-05-10T10:59:26;14.00;99.90
2997;DHT22;1508;48.744;9.110;2023-05-10T11:02:32;13.70;99.90
2997;DHT22;1508;48.744;9.110;2023-05-10T11:05:35;13.70;99.90
2997;DHT22;1508;48.744;9.110;2023-05-10T11:08:27;13.90;99.90
2997;DHT22;1508;48.744;9.110;2023-05-10T11:11:14;14.20;99.90
2997;DHT22;1508;48.744;9.110;2023-05-10T11:14:03;14.50;99.90
2997;DHT22;1508;48.744;9.110;2023-05-10T11:16:49;14.60;99.90
2997;DHT22;1508;48.744;9.110;2023-05-10T11:19:35;14.80;99.90
2997;DHT22;1508;48.744;9.110;2023-05-10T11:22:21;14.10;99.90
2997;DHT22;1508;48.744;9.110;2023-05-10T11:25:10;13.80;99.90
2997;DHT22;1508;48.744;9.110;2023-05-10T11:27:56;13.80;99.90
2997;DHT22;1508;48.744;9.110;2023-05-10T11:30:43;13.90;99.90
2997;DHT22;1508;48.744;9.110;2023-05-10T11:33:29;13.90;99.90
2997;DHT22;1508;48.744;9.110;2023-05-10T11:36:16;14.00;99.90
2997;DHT22;1508;48.744;9.110;2023-05-10T11:39:02;14.00;99.90
2997;DHT22;1508;48.744;9.110;2023-05-10T11:41:48;13.80;99.90
2997;DHT22;1508;48.744;9.110;2023-05-10T11:44:34;13.70;99.90
2997;DHT22;1508;48.744;9.110;2023-05-10T11:47:20;13.80;99.90
2997;DHT22;1508;48.744;9.110;2023-05-10T11:50:06;13.90;99.90
2997;DHT22;1508;48.744;9.110;2023-05-10T11:52:55;13.70;99.90
2997;DHT22;1508;48.744;9.110;2023-05-10T11:55:41;13.80;99.90
2997;DHT22;1508;48.744;9.110;2023-05-10T11:58:26;13.70;99.90
2997;DHT22;1508;48.744;9.110;2023-05-10T12:01:12;14.00;99.90
2997;DHT22;1508;48.744;9.110;2023-05-10T12:03:58;14.10;99.90
2997;DHT22;1508;48.744;9.110;2023-05-10T12:06:44;14.30;99.90
2997;DHT22;1508;48.744;9.110;2023-05-10T12:09:30;14.60;99.90
2997;DHT22;1508;48.744;9.110;2023-05-10T12:12:16;14.80;99.90
2997;DHT22;1508;48.744;9.110;2023-05-10T12:15:02;14.80;99.90
2997;DHT22;1508;48.744;9.110;2023-05-10T12:17:48;14.70;99.90
2997;DHT22;1508;48.744;9.110;2023-05-10T12:20:34;15.00;99.90
2997;DHT22;1508;48.744;9.110;2023-05-10T12:23:20;15.30;99.90
2997;DHT22;1508;48.744;9.110;2023-05-10T12:26:06;15.20;99.90
2997;DHT22;1508;48.744;9.110;2023-05-10T12:28:54;14.90;99.90
2997;DHT22;1508;48.744;9.110;2023-05-10T12:31:53;14.60;99.90
2997;DHT22;1508;48.744;9.110;2023-05-10T12:34:39;14.70;99.90
2997;DHT22;1508;48.744;9.110;2023-05-10T12:37:27;15.00;99.90
2997;DHT22;1508;48.744;9.110;2023-05-10T12:40:13;15.10;99.90
2997;DHT22;1508;48.744;9.110;2023-05-10T12:42:59;15.20;99.90
2997;DHT22;1508;48.744;9.110;2023-05-10T12:45:45;15.20;99.90
2997;DHT22;1508;48.744;9.110;2023-05-10T12:48:30;15.40;99.90
2997;DHT22;1508;48.744;9.110;2023-05-10T12:51:16;14.90;99.90
2997;DHT22;1508;48.744;9.110;2023-05-10T12:54:02;14.50;99.90
2997;DHT22;1508;48.744;9.110;2023-05-10T12:56:48;14.60;99.90
2997;DHT22;1508;48.744;9.110;2023-05-10T12:59:33;14.50;99.90
2997;DHT22;1508;48.744;9.110;2023-05-10T13:02:19;14.60;99.90
2997;DHT22;1508;48.744;9.110;2023-05-10T13:05:05;14.60;99.90
2997;DHT22;1508;48.744;9.110;2023-05-10T13:07:51;14.90;99.90
2997;DHT22;1508;48.744;9.110;2023-05-10T13:10:37;15.10;99.90
2997;DHT22;1508;48.744;9.110;2023-05-10T13:13:22;15.30;99.90
2997;DHT22;1508;48.744;9.110;2023-05-10T13:16:08;15.30;99.90
2997;DHT22;1508;48.744;9.110;2023-05-10T13:18:54;15.10;99.90
2997;DHT22;1508;48.744;9.110;2023-05-10T13:21:39;15.20;99.90
2997;DHT22;1508;48.744;9.110;2023-05-10T13:24:25;15.10;99.90
2997;DHT22;1508;48.744;9.110;2023-05-10T13:27:11;15.20;99.90
2997;DHT22;1508;48.744;9.110;2023-05-10T13:29:57;15.00;99.90
2997;DHT22;1508;48.744;9.110;2023-05-10T13:32:42;15.20;99.90
2997;DHT22;1508;48.744;9.110;2023-05-10T13:35:28;15.30;99.90
2997;DHT22;1508;48.744;9.110;2023-05-10T13:38:14;15.40;99.90
2997;DHT22;1508;48.744;9.110;2023-05-10T13:41:00;15.00;99.90
2997;DHT22;1508;48.744;9.110;2023-05-10T13:43:45;15.40;99.90
2997;DHT22;1508;48.744;9.110;2023-05-10T13:46:31;15.80;99.90
2997;DHT22;1508;48.744;9.110;2023-05-10T13:49:17;15.60;99.90
2997;DHT22;1508;48.744;9.110;2023-05-10T13:52:03;15.40;99.90
2997;DHT22;1508;48.744;9.110;2023-05-10T13:54:49;15.10;99.90
2997;DHT22;1508;48.744;9.110;2023-05-10T13:57:36;15.10;99.90
2997;DHT22;1508;48.744;9.110;2023-05-10T14:00:22;15.40;99.90
2997;DHT22;1508;48.744;9.110;2023-05-10T14:03:07;15.80;99.90
2997;DHT22;1508;48.744;9.110;2023-05-10T14:05:53;15.90;99.90
2997;DHT22;1508;48.744;9.110;2023-05-10T14:08:39;15.70;99.90
2997;DHT22;1508;48.744;9.110;2023-05-10T14:11:25;15.60;99.90
2997;DHT22;1508;48.744;9.110;2023-05-10T14:14:11;16.10;99.90
2997;DHT22;1508;48.744;9.110;2023-05-10T14:16:57;16.00;99.90
2997;DHT22;1508;48.744;9.110;2023-05-10T14:19:42;16.60;99.90
2997;DHT22;1508;48.744;9.110;2023-05-10T14:22:28;16.70;99.90
2997;DHT22;1508;48.744;9.110;2023-05-10T14:25:14;15.90;99.90
2997;DHT22;1508;48.744;9.110;2023-05-10T14:28:00;15.90;99.90
2997;DHT22;1508;48.744;9.110;2023-05-10T14:30:46;16.10;99.90
2997;DHT22;1508;48.744;9.110;2023-05-10T14:33:32;16.00;99.90
2997;DHT22;1508;48.744;9.110;2023-05-10T14:36:17;16.10;99.90
2997;DHT22;1508;48.744;9.110;2023-05-10T14:39:03;16.00;99.90
2997;DHT22;1508;48.744;9.110;2023-05-10T14:41:49;15.60;99.90
2997;DHT22;1508;48.744;9.110;2023-05-10T14:44:35;15.50;99.90
2997;DHT22;1508;48.744;9.110;2023-05-10T14:47:20;15.70;99.90
2997;DHT22;1508;48.744;9.110;2023-05-10T14:50:06;15.60;99.90
2997;DHT22;1508;48.744;9.110;2023-05-10T14:52:52;15.30;99.90
2997;DHT22;1508;48.744;9.110;2023-05-10T14:55:38;15.30;99.90
2997;DHT22;1508;48.744;9.110;2023-05-10T14:58:24;15.40;99.90
2997;DHT22;1508;48.744;9.110;2023-05-10T15:01:10;15.50;99.90
2997;DHT22;1508;48.744;9.110;2023-05-10T15:03:56;15.70;99.90
2997;DHT22;1508;48.744;9.110;2023-05-10T15:06:42;15.80;99.90
2997;DHT22;1508;48.744;9.110;2023-05-10T15:09:28;15.60;99.90
2997;DHT22;1508;48.744;9.110;2023-05-10T15:12:13;15.50;99.90
2997;DHT22;1508;48.744;9.110;2023-05-10T15:14:59;15.40;99.90
2997;DHT22;1508;48.744;9.110;2023-05-10T15:17:45;15.70;99.90
2997;DHT22;1508;48.744;9.110;2023-05-10T15:20:31;16.00;99.90
2997;DHT22;1508;48.744;9.110;2023-05-10T15:23:16;16.10;99.90
2997;DHT22;1508;48.744;9.110;2023-05-10T15:26:02;15.70;99.90
2997;DHT22;1508;48.744;9.110;2023-05-10T15:28:48;15.60;99.90
2997;DHT22;1508;48.744;9.110;2023-05-10T15:31:33;15.50;99.90
2997;DHT22;1508;48.744;9.110;2023-05-10T15:34:19;15.50;99.90
2997;DHT22;1508;48.744;9.110;2023-05-10T15:37:05;15.50;99.90
2997;DHT22;1508;48.744;9.110;2023-05-10T15:39:51;15.60;99.90
2997;DHT22;1508;48.744;9.110;2023-05-10T15:42:36;15.80;99.90
2997;DHT22;1508;48.744;9.110;2023-05-10T15:45:22;16.00;99.90
2997;DHT22;1508;48.744;9.110;2023-05-10T15:48:08;15.80;99.90
2997;DHT22;1508;48.744;9.110;2023-05-10T15:50:54;15.70;99.90
2997;DHT22;1508;48.744;9.110;2023-05-10T15:53:40;15.80;99.90
2997;DHT22;1508;48.744;9.110;2023-05-10T15:56:26;15.80;99.90
2997;DHT22;1508;48.744;9.110;2023-05-10T15:59:12;15.70;99.90
2997;DHT22;1508;48.744;9.110;2023-05-10T16:01:58;15.60;99.90
2997;DHT22;1508;48.744;9.110;2023-05-10T16:04:44;15.50;99.90
2997;DHT22;1508;48.744;9.110;2023-05-10T16:07:29;15.30;99.90
2997;DHT22;1508;48.744;9.110;2023-05-10T16:10:15;15.20;99.90
2997;DHT22;1508;48.744;9.110;2023-05-10T16:13:01;15.60;99.90
2997;DHT22;1508;48.744;9.110;2023-05-10T16:15:47;15.80;99.90
2997;DHT22;1508;48.744;9.110;2023-05-10T16:18:33;15.60;99.90
2997;DHT22;1508;48.744;9.110;2023-05-10T16:21:19;15.50;99.90
2997;DHT22;1508;48.744;9.110;2023-05-10T16:24:04;15.60;99.90
2997;DHT22;1508;48.744;9.110;2023-05-10T16:26:50;15.30;99.90
2997;DHT22;1508;48.744;9.110;2023-05-10T16:29:36;15.20;99.90
2997;DHT22;1508;48.744;9.110;2023-05-10T16:32:22;15.00;99.90
2997;DHT22;1508;48.744;9.110;2023-05-10T16:35:08;15.00;99.90
2997;DHT22;1508;48.744;9.110;2023-05-10T16:37:54;15.00;99.90
2997;DHT22;1508;48.744;9.110;2023-05-10T16:40:39;14.90;99.90
2997;DHT22;1508;48.744;9.110;2023-05-10T16:43:25;14.90;99.90
2997;DHT22;1508;48.744;9.110;2023-05-10T16:46:11;14.90;99.90
2997;DHT22;1508;48.744;9.110;2023-05-10T16:48:57;15.00;99.90
2997;DHT22;1508;48.744;9.110;2023-05-10T16:51:43;14.80;99.90
2997;DHT22;1508;48.744;9.110;2023-05-10T16:54:28;14.80;99.90
2997;DHT22;1508;48.744;9.110;2023-05-10T16:57:14;14.60;99.90
2997;DHT22;1508;48.744;9.110;2023-05-10T17:00:00;14.50;99.90
2997;DHT22;1508;48.744;9.110;2023-05-10T17:02:45;14.40;99.90
2997;DHT22;1508;48.744;9.110;2023-05-10T17:05:31;14.30;99.90
2997;DHT22;1508;48.744;9.110;2023-05-10T17:08:17;14.30;99.90
2997;DHT22;1508;48.744;9.110;2023-05-10T17:11:03;14.30;99.90
2997;DHT22;1508;48.744;9.110;2023-05-10T17:13:49;14.20;99.90
2997;DHT22;1508;48.744;9.110;2023-05-10T17:16:35;14.20;99.90
2997;DHT22;1508;48.744;9.110;2023-05-10T17:19:20;14.20;99.90
2997;DHT22;1508;48.744;9.110;2023-05-10T17:22:06;14.20;99.90
2997;DHT22;1508;48.744;9.110;2023-05-10T17:24:52;14.20;99.90
2997;DHT22;1508;48.744;9.110;2023-05-10T17:27:38;14.20;99.90
2997;DHT22;1508;48.744;9.110;2023-05-10T17:30:23;14.20;99.90
2997;DHT22;1508;48.744;9.110;2023-05-10T17:33:09;14.50;99.90
2997;DHT22;1508;48.744;9.110;2023-05-10T17:35:55;14.70;99.90
2997;DHT22;1508;48.744;9.110;2023-05-10T17:38:41;14.90;99.90
2997;DHT22;1508;48.744;9.110;2023-05-10T17:41:26;14.80;99.90
2997;DHT22;1508;48.744;9.110;2023-05-10T17:44:12;14.60;99.90
2997;DHT22;1508;48.744;9.110;2023-05-10T17:46:58;14.70;99.90
2997;DHT22;1508;48.744;9.110;2023-05-10T17:49:43;14.80;99.90
2997;DHT22;1508;48.744;9.110;2023-05-10T17:52:29;14.80;99.90
2997;DHT22;1508;48.744;9.110;2023-05-10T17:55:15;14.50;99.90
2997;DHT22;1508;48.744;9.110;2023-05-10T17:58:01;14.00;99.90
2997;DHT22;1508;48.744;9.110;2023-05-10T18:00:46;13.80;99.90
2997;DHT22;1508;48.744;9.110;2023-05-10T18:03:32;13.70;99.90
2997;DHT22;1508;48.744;9.110;2023-05-10T18:06:18;13.90;99.90
2997;DHT22;1508;48.744;9.110;2023-05-10T18:09:04;14.00;99.90
2997;DHT22;1508;48.744;9.110;2023-05-10T18:11:50;14.10;99.90
2997;DHT22;1508;48.744;9.110;2023-05-10T18:14:35;14.00;99.90
2997;DHT22;1508;48.744;9.110;2023-05-10T18:17:21;13.80;99.90
2997;DHT22;1508;48.744;9.110;2023-05-10T18:20:07;13.90;99.90
2997;DHT22;1508;48.744;9.110;2023-05-10T18:22:54;13.90;99.90
2997;DHT22;1508;48.744;9.110;2023-05-10T18:25:39;13.80;99.90
2997;DHT22;1508;48.744;9.110;2023-05-10T18:28:25;13.90;99.90
2997;DHT22;1508;48.744;9.110;2023-05-10T18:31:11;13.70;99.90
2997;DHT22;1508;48.744;9.110;2023-05-10T18:33:56;13.70;99.90
2997;DHT22;1508;48.744;9.110;2023-05-10T18:36:42;13.70;99.90